Main page
METAR-TAF:

METAR-TAF

Airports :

Jubail Airport

Jubail, Saudi Arabia

latitude: 27-02-20N, longitude: 49-24-18E, elevation: 8 m

Current weather observation

The report was made 4 hours and 8 minutes ago, at 00:53 UTC
Wind 4 kt from the South
Temperature 13°C
Humidity 100%
Pressure 1019 hPa
Visibility: 1600 m
Few clouds at a height of 100 ft
mist

METAR: OEJB 090053Z AUTO 17004KT 1600 BR FEW001 13/13 Q1019 NOSIG

Time: 08:01 (05:01 UTC)


TAF: missing

Weather observations and forecasts of more than 4000 airports (METAR and TAF reports).

The available stations are represented by yellow and red dots on the map.

Hover mouse over dot to see the name of the station.

Then click to see weather observations and forecasts.

To change the map : click on the green buttons with a black cross to zoom in, on the green button with a dash to zoom out, or on the green arrows for adjacent maps.


METAR-TAF: